Time;durP1;ratioP1;P1;durP2;ratioP2;P2;SDS_P1;SDS_P2;PMS_P1;PMS_P2;Temp;Humidity;BMP_temperature;BMP_pressure;BME280_temperature;BME280_humidity;BME280_pressure;Samples;Min_cycle;Max_cycle;Signal;HPM_P1;HPM_P2
2022/06/01 00:02:22;;;;;;;4.55;3.30;;;14.10;99.90;;;;;;6189545;23;20167;-86
2022/06/01 00:04:47;;;;;;;4.32;3.17;;;14.00;99.90;;;;;;6189246;23;20479;-85
2022/06/01 00:07:13;;;;;;;5.68;4.03;;;14.10;99.90;;;;;;6191011;23;20179;-83
2022/06/01 00:09:39;;;;;;;4.90;3.65;;;14.10;99.90;;;;;;6165464;23;20156;-85
2022/06/01 00:12:05;;;;;;;4.97;3.92;;;14.00;99.90;;;;;;6193649;23;20184;-84
2022/06/01 00:14:33;;;;;;;4.95;3.75;;;14.10;99.90;;;;;;6192455;23;20152;-84
2022/06/01 00:16:58;;;;;;;5.38;4.03;;;14.10;99.90;;;;;;6193220;23;20183;-84
2022/06/01 00:19:24;;;;;;;4.10;3.58;;;;;;;;;;6190795;23;20648;-86
2022/06/01 00:24:37;;;;;;;4.90;3.50;;;14.00;99.90;;;;;;6192415;23;20227;-85
2022/06/01 00:27:03;;;;;;;6.40;3.90;;;14.00;99.90;;;;;;6189686;23;20198;-85
2022/06/01 00:29:29;;;;;;;5.40;3.55;;;14.10;99.90;;;;;;6188454;23;20222;-85
2022/06/01 00:31:54;;;;;;;5.28;3.67;;;;;;;;;;6164019;23;20164;-85
2022/06/01 00:34:20;;;;;;;5.15;3.90;;;;;;;;;;6187508;23;20230;-87
2022/06/01 00:36:46;;;;;;;6.65;3.88;;;14.00;99.90;;;;;;6188805;23;20184;-85
2022/06/01 00:39:12;;;;;;;4.30;3.63;;;14.10;99.90;;;;;;6215435;23;20166;-85
2022/06/01 00:41:37;;;;;;;4.68;3.35;;;14.10;99.90;;;;;;6215374;23;20152;-86
2022/06/01 00:44:03;;;;;;;4.32;3.58;;;14.00;99.90;;;;;;6164122;23;20587;-85
2022/06/01 00:46:30;;;;;;;7.10;4.05;;;14.00;99.90;;;;;;6188417;23;20168;-86
2022/06/01 00:49:00;;;;;;;5.07;3.33;;;14.00;99.90;;;;;;6188871;23;20164;-85
2022/06/01 00:51:27;;;;;;;6.40;3.92;;;14.00;99.90;;;;;;6214390;23;20633;-86
2022/06/01 00:53:55;;;;;;;4.45;3.40;;;14.00;99.90;;;;;;6188997;23;20159;-86
2022/06/01 00:56:27;;;;;;;5.97;3.97;;;13.90;99.90;;;;;;6204728;23;20179;-86
2022/06/01 00:58:57;;;;;;;4.82;3.45;;;13.90;99.90;;;;;;6237840;23;20140;-86
2022/06/01 01:01:23;;;;;;;5.30;3.83;;;13.90;99.90;;;;;;6225568;23;20152;-86
2022/06/01 01:03:52;;;;;;;3.50;3.05;;;13.90;99.90;;;;;;6218224;23;20156;-86
2022/06/01 01:06:20;;;;;;;5.93;3.85;;;13.90;99.90;;;;;;6189939;23;20183;-86
2022/06/01 01:08:49;;;;;;;4.15;3.55;;;13.90;99.90;;;;;;6216722;23;20152;-86
2022/06/01 01:11:18;;;;;;;5.60;4.15;;;13.90;99.90;;;;;;6191233;23;20278;-85
2022/06/01 01:13:47;;;;;;;4.63;3.28;;;13.90;99.90;;;;;;6202417;23;20151;-85
2022/06/01 01:16:14;;;;;;;4.25;3.30;;;13.90;99.90;;;;;;6206046;23;20156;-86
2022/06/01 01:18:43;;;;;;;5.13;3.40;;;13.90;99.90;;;;;;6192149;23;20223;-85
2022/06/01 01:21:46;;;;;;;9.45;3.53;;;13.80;99.90;;;;;;6217482;23;20151;-86
2022/06/01 01:24:34;;;;;;;3.92;3.20;;;13.80;99.90;;;;;;6190486;23;20160;-86
2022/06/01 01:26:59;;;;;;;5.97;3.88;;;13.80;99.90;;;;;;6217126;23;20190;-85
2022/06/01 01:29:31;;;;;;;4.78;3.58;;;13.80;99.90;;;;;;6165466;23;20160;-86
2022/06/01 01:31:58;;;;;;;5.47;3.72;;;13.80;99.90;;;;;;6217237;23;20156;-86
2022/06/01 01:34:24;;;;;;;4.60;3.50;;;13.80;99.90;;;;;;6166070;23;20195;-85
2022/06/01 01:36:54;;;;;;;4.15;3.28;;;13.80;99.90;;;;;;6216540;23;20190;-85
2022/06/01 01:39:19;;;;;;;4.85;3.58;;;13.80;99.90;;;;;;6216970;23;20607;-85
2022/06/01 01:41:46;;;;;;;4.25;3.33;;;13.70;99.90;;;;;;6165309;23;20175;-88
2022/06/01 01:44:16;;;;;;;4.45;3.45;;;13.70;99.90;;;;;;6190193;23;20166;-86
2022/06/01 01:46:47;;;;;;;4.43;3.47;;;13.70;99.90;;;;;;6216277;23;20223;-86
2022/06/01 01:49:14;;;;;;;3.90;3.50;;;13.70;99.90;;;;;;6217183;23;20136;-86
2022/06/01 01:51:40;;;;;;;3.95;3.13;;;13.70;99.90;;;;;;6223043;23;20148;-86
2022/06/01 01:54:35;;;;;;;6.45;3.50;;;13.70;99.90;;;;;;6153824;23;20166;-86
2022/06/01 01:57:10;;;;;;;5.90;3.88;;;13.70;99.90;;;;;;6169475;23;20258;-86
2022/06/01 02:00:03;;;;;;;5.43;3.55;;;13.60;99.90;;;;;;6189809;23;20163;-85
2022/06/01 02:02:32;;;;;;;3.90;3.15;;;13.60;99.90;;;;;;6149233;23;20160;-85
2022/06/01 02:08:06;;;;;;;4.03;3.15;;;13.60;99.90;;;;;;6216152;23;20198;-85
2022/06/01 02:13:18;;;;;;;5.78;3.30;;;13.50;99.90;;;;;;6194189;23;20163;-85
2022/06/01 02:15:44;;;;;;;5.03;3.63;;;13.50;99.90;;;;;;6164746;23;20159;-85
2022/06/01 02:18:15;;;;;;;5.97;3.90;;;13.50;99.90;;;;;;6190188;23;20238;-84
2022/06/01 02:20:50;;;;;;;4.15;3.67;;;13.50;99.90;;;;;;6215942;23;20140;-85
2022/06/01 02:23:17;;;;;;;5.00;4.05;;;13.50;99.90;;;;;;6216901;23;20147;-85
2022/06/01 02:25:48;;;;;;;5.55;3.85;;;13.50;99.90;;;;;;6189296;23;20160;-85
2022/06/01 02:28:13;;;;;;;5.13;3.50;;;13.50;99.90;;;;;;6216699;23;20582;-85
2022/06/01 02:30:42;;;;;;;4.10;3.50;;;13.50;99.90;;;;;;6189477;23;20180;-85
2022/06/01 02:33:13;;;;;;;4.43;3.80;;;13.50;99.90;;;;;;6189344;23;20155;-85
2022/06/01 02:35:43;;;;;;;4.63;3.65;;;13.50;99.90;;;;;;6189689;23;20160;-86
2022/06/01 02:38:12;;;;;;;6.05;3.67;;;13.50;99.90;;;;;;6189752;23;20194;-85
2022/06/01 02:40:39;;;;;;;4.30;3.67;;;13.50;99.90;;;;;;6189620;23;20160;-86
2022/06/01 02:43:05;;;;;;;5.18;3.45;;;13.50;99.90;;;;;;6189554;23;20483;-85
2022/06/01 02:45:31;;;;;;;7.47;3.78;;;12.90;99.90;;;;;;6189748;23;20694;-85
2022/06/01 02:47:59;;;;;;;4.07;3.30;;;12.60;99.90;;;;;;6139055;23;20200;-85
2022/06/01 02:50:27;;;;;;;7.38;3.63;;;13.50;99.90;;;;;;6189952;23;20191;-85
2022/06/01 02:52:53;;;;;;;5.45;3.97;;;13.60;99.90;;;;;;6189446;23;20159;-84
2022/06/01 02:55:21;;;;;;;3.38;2.88;;;13.60;99.90;;;;;;6189451;23;20160;-85
2022/06/01 02:57:47;;;;;;;5.45;3.75;;;13.60;99.90;;;;;;6215951;23;20183;-85
2022/06/01 03:00:22;;;;;;;5.20;4.28;;;13.60;99.90;;;;;;6189534;23;20166;-85
2022/06/01 03:02:54;;;;;;;6.93;4.07;;;13.70;99.90;;;;;;6215996;23;20140;-85
2022/06/01 03:05:22;;;;;;;4.20;3.25;;;13.70;99.90;;;;;;6189604;23;20179;-84
2022/06/01 03:07:48;;;;;;;5.63;3.85;;;13.70;99.90;;;;;;6215346;23;20156;-85
2022/06/01 03:10:14;;;;;;;6.28;3.72;;;13.80;99.90;;;;;;6165144;23;20195;-85
2022/06/01 03:12:40;;;;;;;4.25;3.58;;;13.80;99.90;;;;;;6189764;23;20194;-85
2022/06/01 03:15:08;;;;;;;6.28;4.18;;;13.80;99.90;;;;;;6215389;23;20156;-85
2022/06/01 03:17:34;;;;;;;3.97;3.17;;;13.90;99.90;;;;;;6189330;23;20262;-85
2022/06/01 03:20:02;;;;;;;4.65;3.33;;;13.90;99.90;;;;;;6188705;23;20198;-85
2022/06/01 03:22:28;;;;;;;6.13;3.72;;;13.90;99.90;;;;;;6215454;23;20214;-84
2022/06/01 03:24:54;;;;;;;4.18;3.55;;;14.00;99.90;;;;;;6164354;23;20242;-85
2022/06/01 03:27:19;;;;;;;4.97;3.72;;;14.00;99.90;;;;;;6189331;23;20156;-85
2022/06/01 03:29:45;;;;;;;3.38;3.00;;;14.00;99.90;;;;;;6139583;23;20167;-85
2022/06/01 03:32:12;;;;;;;4.70;3.05;;;;;;;;;;6188830;23;20156;-85
2022/06/01 03:34:38;;;;;;;4.63;3.60;;;14.10;99.90;;;;;;6185499;23;20214;-85
2022/06/01 03:37:04;;;;;;;4.55;3.20;;;14.10;99.90;;;;;;6214123;23;20186;-86
2022/06/01 03:39:30;;;;;;;4.68;3.33;;;14.10;99.90;;;;;;6187729;23;20179;-85
2022/06/01 03:41:56;;;;;;;4.53;3.17;;;14.20;99.90;;;;;;6162484;23;20160;-86
2022/06/01 03:47:09;;;;;;;4.18;3.35;;;14.20;99.90;;;;;;6214603;23;20166;-87
2022/06/01 03:49:35;;;;;;;3.78;3.08;;;14.20;99.90;;;;;;6172919;23;20155;-86
2022/06/01 03:52:02;;;;;;;4.35;3.67;;;14.20;99.90;;;;;;6199717;23;20225;-87
2022/06/01 03:54:28;;;;;;;3.28;2.95;;;14.30;99.90;;;;;;6162151;23;20293;-86
2022/06/01 03:56:54;;;;;;;4.50;3.05;;;14.30;99.90;;;;;;6213675;23;20202;-86
2022/06/01 03:59:20;;;;;;;4.63;3.42;;;14.30;99.90;;;;;;6162408;23;20206;-85
2022/06/01 04:01:46;;;;;;;4.22;3.10;;;;;;;;;;6162505;23;20523;-87
2022/06/01 04:04:12;;;;;;;5.65;3.38;;;14.30;99.90;;;;;;6186353;23;20160;-86
2022/06/01 04:06:38;;;;;;;7.15;3.60;;;;;;;;;;6187298;23;20678;-87
2022/06/01 04:09:03;;;;;;;5.28;3.45;;;14.30;99.90;;;;;;6186832;23;20164;-87
2022/06/01 04:11:29;;;;;;;3.80;3.20;;;;;;;;;;6186964;23;20532;-87
2022/06/01 04:13:55;;;;;;;3.83;3.35;;;14.30;99.90;;;;;;6186680;23;20318;-87
2022/06/01 04:16:21;;;;;;;5.00;2.88;;;14.30;99.90;;;;;;6162518;23;20168;-86
2022/06/01 04:18:47;;;;;;;5.47;3.28;;;12.40;99.90;;;;;;6187552;23;20666;-85
2022/06/01 04:21:15;;;;;;;4.32;3.40;;;14.40;99.90;;;;;;6163178;23;20171;-84
2022/06/01 04:23:41;;;;;;;5.60;4.15;;;14.40;99.90;;;;;;6186419;23;20183;-86
2022/06/01 04:26:06;;;;;;;4.40;3.17;;;14.50;99.90;;;;;;6137486;23;20160;-87
2022/06/01 04:28:32;;;;;;;5.65;3.65;;;14.50;99.90;;;;;;6163219;23;20164;-87
2022/06/01 04:30:59;;;;;;;4.40;3.20;;;;;;;;;;6151775;23;20564;-88
2022/06/01 04:33:26;;;;;;;5.45;3.88;;;14.80;99.90;;;;;;6239788;23;20159;-90
2022/06/01 04:35:52;;;;;;;3.90;2.97;;;14.90;99.90;;;;;;6219074;23;20151;-87
2022/06/01 04:38:21;;;;;;;3.50;3.20;;;15.00;99.90;;;;;;6192548;23;20183;-89
2022/06/01 04:40:50;;;;;;;5.68;4.18;;;15.30;99.90;;;;;;6190613;23;20211;-88
2022/06/01 04:43:19;;;;;;;4.45;3.60;;;16.40;99.90;;;;;;6210145;23;20159;-90
2022/06/01 04:45:45;;;;;;;4.45;3.40;;;15.50;99.90;;;;;;6211792;23;20150;-89
2022/06/01 04:48:11;;;;;;;4.60;3.42;;;15.60;99.90;;;;;;6212118;23;20207;-88
2022/06/01 04:50:42;;;;;;;4.07;3.17;;;15.60;99.90;;;;;;6241693;23;20160;-90
2022/06/01 04:55:48;;;;;;;8.20;3.78;;;15.60;99.90;;;;;;6229827;22;20212;-89
2022/06/01 04:58:14;;;;;;;5.20;3.28;;;15.70;99.90;;;;;;6214519;23;20176;-88
2022/06/01 05:00:44;;;;;;;3.53;2.70;;;15.50;99.90;;;;;;6212525;23;20176;-87
2022/06/01 05:06:34;;;;;;;4.85;3.15;;;15.50;99.90;;;;;;6199855;23;20707;-89
2022/06/01 05:09:00;;;;;;;3.55;3.10;;;15.80;99.90;;;;;;6205614;23;20178;-82
2022/06/01 05:11:26;;;;;;;4.93;3.65;;;;;;;;;;6220891;23;20137;-82
2022/06/01 05:13:52;;;;;;;3.90;3.03;;;15.60;99.90;;;;;;6220927;23;20188;-81
2022/06/01 05:16:18;;;;;;;3.25;2.95;;;15.70;99.90;;;;;;6205578;23;20159;-82
2022/06/01 05:18:44;;;;;;;4.10;3.10;;;15.80;99.90;;;;;;6201568;23;20156;-82
2022/06/01 05:21:10;;;;;;;5.60;3.25;;;15.90;99.90;;;;;;6241235;23;20155;-84
2022/06/01 05:23:36;;;;;;;8.32;3.92;;;16.00;99.90;;;;;;6246759;23;20132;-82
2022/06/01 05:26:02;;;;;;;6.20;4.10;;;16.10;99.90;;;;;;6246393;23;20132;-85
2022/06/01 05:28:30;;;;;;;3.40;2.85;;;16.20;99.90;;;;;;6238733;23;20167;-80
2022/06/01 05:31:04;;;;;;;5.32;3.45;;;16.30;99.90;;;;;;6219161;23;20235;-89
2022/06/01 05:33:30;;;;;;;5.03;3.45;;;16.40;99.90;;;;;;6219424;23;20197;-81
2022/06/01 05:35:56;;;;;;;4.47;3.45;;;16.40;99.90;;;;;;6218989;23;20478;-87
2022/06/01 05:38:22;;;;;;;3.88;2.80;;;16.50;99.90;;;;;;6167258;23;20505;-82
2022/06/01 05:40:47;;;;;;;3.63;2.90;;;16.50;99.90;;;;;;6167526;23;20171;-82
2022/06/01 05:43:15;;;;;;;6.03;3.40;;;16.60;99.90;;;;;;6217837;23;20152;-82
2022/06/01 05:45:41;;;;;;;5.32;3.20;;;16.60;99.90;;;;;;6190865;23;20156;-81
2022/06/01 05:48:09;;;;;;;5.22;3.13;;;16.60;99.90;;;;;;6190553;23;20165;-81
2022/06/01 05:50:35;;;;;;;4.32;3.60;;;16.70;99.90;;;;;;6217513;23;20239;-82
2022/06/01 05:53:01;;;;;;;5.15;3.20;;;16.70;99.90;;;;;;6216697;23;20179;-82
2022/06/01 05:55:27;;;;;;;5.40;3.35;;;16.70;99.90;;;;;;6217196;23;20241;-81
2022/06/01 05:57:52;;;;;;;3.60;3.22;;;16.70;99.90;;;;;;6217168;23;20611;-81
2022/06/01 06:00:19;;;;;;;4.63;3.33;;;16.70;99.90;;;;;;6165479;23;20183;-82
2022/06/01 06:02:45;;;;;;;7.60;3.80;;;16.80;99.90;;;;;;6190657;23;20179;-81
2022/06/01 06:07:57;;;;;;;6.13;3.75;;;16.80;99.90;;;;;;6217037;23;20285;-81
2022/06/01 06:10:23;;;;;;;5.47;3.78;;;16.80;99.90;;;;;;6216604;23;20174;-82
2022/06/01 06:12:49;;;;;;;5.95;3.78;;;16.80;99.90;;;;;;6216596;23;20595;-81
2022/06/01 06:15:15;;;;;;;8.70;3.90;;;16.80;99.90;;;;;;6216774;23;20733;-83
2022/06/01 06:17:41;;;;;;;7.10;4.20;;;16.90;99.90;;;;;;6189819;23;20186;-81
2022/06/01 06:20:07;;;;;;;5.45;3.97;;;16.90;99.90;;;;;;6190297;23;20159;-82
2022/06/01 06:22:33;;;;;;;5.30;3.58;;;16.90;99.90;;;;;;6216210;23;20607;-81
2022/06/01 06:24:59;;;;;;;6.57;3.60;;;16.90;99.90;;;;;;6164533;23;20175;-81
2022/06/01 06:27:26;;;;;;;8.68;4.07;;;16.90;99.90;;;;;;6164762;23;20251;-81
2022/06/01 06:29:53;;;;;;;5.45;3.90;;;16.90;99.90;;;;;;6216461;23;20152;-83
2022/06/01 06:32:19;;;;;;;4.47;3.35;;;17.00;99.90;;;;;;6215467;23;20186;-83
2022/06/01 06:34:44;;;;;;;4.65;3.03;;;16.90;99.90;;;;;;6188897;23;20175;-83
2022/06/01 06:37:10;;;;;;;6.40;3.95;;;17.00;99.90;;;;;;6163724;23;20721;-83
2022/06/01 06:39:35;;;;;;;6.40;3.90;;;17.10;99.90;;;;;;6214504;23;20239;-84
2022/06/01 06:42:01;;;;;;;6.95;3.65;;;17.10;99.90;;;;;;6188020;23;20160;-83
2022/06/01 06:44:27;;;;;;;4.53;3.38;;;17.10;99.90;;;;;;6187741;23;20187;-82
2022/06/01 06:46:52;;;;;;;5.82;3.80;;;17.20;99.90;;;;;;6188594;23;20677;-82
2022/06/01 06:49:18;;;;;;;6.80;3.95;;;17.10;99.90;;;;;;6214993;23;20587;-82
2022/06/01 06:51:44;;;;;;;5.45;3.78;;;17.20;99.90;;;;;;6164125;23;20160;-84
2022/06/01 06:54:10;;;;;;;7.78;4.00;;;17.30;99.90;;;;;;6189651;23;20202;-82
2022/06/01 06:56:36;;;;;;;6.10;4.00;;;17.40;99.90;;;;;;6189192;23;20183;-84
2022/06/01 06:59:03;;;;;;;4.70;3.45;;;17.50;99.90;;;;;;6215709;23;20160;-83
2022/06/01 07:01:29;;;;;;;6.22;3.90;;;17.60;99.90;;;;;;6188960;23;20156;-82
2022/06/01 07:03:55;;;;;;;5.57;3.67;;;17.70;99.90;;;;;;6215850;23;20160;-83
2022/06/01 07:06:21;;;;;;;5.53;3.63;;;17.70;99.90;;;;;;6188586;23;20198;-82
2022/06/01 07:08:50;;;;;;;5.75;3.85;;;17.70;99.90;;;;;;6215709;23;20179;-83
2022/06/01 07:11:18;;;;;;;6.20;3.67;;;17.70;99.90;;;;;;6215628;23;20158;-80
2022/06/01 07:13:45;;;;;;;6.75;3.85;;;17.60;99.90;;;;;;6189021;23;20206;-81
2022/06/01 07:16:14;;;;;;;6.95;3.80;;;17.60;99.90;;;;;;6188839;23;20160;-82
2022/06/01 07:18:47;;;;;;;5.25;3.97;;;17.60;99.90;;;;;;6215457;23;20151;-84
2022/06/01 07:21:17;;;;;;;7.55;4.32;;;17.60;99.90;;;;;;6189180;23;20159;-83
2022/06/01 07:23:44;;;;;;;5.22;3.75;;;17.60;99.90;;;;;;6188888;23;20152;-84
2022/06/01 07:26:16;;;;;;;5.82;3.75;;;17.60;99.90;;;;;;6188891;23;20167;-83
2022/06/01 07:28:42;;;;;;;7.10;3.92;;;17.70;99.90;;;;;;6214035;23;20587;-85
2022/06/01 07:31:08;;;;;;;5.82;3.92;;;17.60;99.90;;;;;;6188813;23;20163;-83
2022/06/01 07:33:35;;;;;;;7.30;3.97;;;17.60;99.90;;;;;;6215181;23;20209;-82
2022/06/01 07:36:04;;;;;;;4.88;3.63;;;17.60;99.90;;;;;;6188884;23;20183;-82
2022/06/01 07:44:07;;;;;;;7.30;4.07;;;17.80;99.90;;;;;;6215056;23;20486;-83
2022/06/01 07:46:34;;;;;;;5.20;3.88;;;18.00;99.90;;;;;;6188279;23;20162;-85
2022/06/01 07:49:00;;;;;;;7.55;4.68;;;17.90;99.90;;;;;;6215456;23;20155;-84
2022/06/01 07:51:25;;;;;;;6.05;4.50;;;17.90;99.90;;;;;;6214842;23;20231;-84
2022/06/01 07:53:51;;;;;;;6.50;3.50;;;17.90;99.90;;;;;;6188729;23;20548;-83
2022/06/01 07:56:17;;;;;;;7.53;5.07;;;17.90;99.90;;;;;;6189173;23;20583;-84
2022/06/01 07:58:43;;;;;;;5.38;3.97;;;17.90;99.90;;;;;;6189858;23;20594;-84
2022/06/01 08:01:10;;;;;;;4.63;3.53;;;18.00;99.90;;;;;;6188744;23;20152;-84
2022/06/01 08:03:35;;;;;;;6.05;3.90;;;18.00;99.90;;;;;;6163273;23;20489;-84
2022/06/01 08:06:01;;;;;;;4.30;3.38;;;18.00;99.90;;;;;;6214728;23;20164;-84
2022/06/01 08:08:27;;;;;;;6.25;3.70;;;18.00;99.90;;;;;;6189334;23;20163;-83
2022/06/01 08:10:53;;;;;;;6.47;4.07;;;18.10;99.90;;;;;;6189690;23;20657;-83
2022/06/01 08:13:19;;;;;;;5.45;3.55;;;18.10;99.90;;;;;;6189644;23;20156;-84
2022/06/01 08:15:47;;;;;;;6.65;3.85;;;18.10;99.90;;;;;;6215713;23;20235;-83
2022/06/01 08:18:16;;;;;;;5.30;4.05;;;18.20;99.90;;;;;;6216217;23;20254;-83
2022/06/01 08:20:42;;;;;;;10.15;4.05;;;18.20;99.90;;;;;;6216483;23;20151;-82
2022/06/01 08:23:09;;;;;;;5.35;3.75;;;18.20;99.90;;;;;;6216478;23;20152;-83
2022/06/01 08:25:36;;;;;;;5.95;4.07;;;18.10;99.90;;;;;;6189398;23;20226;-84
2022/06/01 08:28:03;;;;;;;7.00;4.45;;;18.10;99.90;;;;;;6189693;23;20160;-83
2022/06/01 08:30:30;;;;;;;9.07;5.22;;;18.20;99.90;;;;;;6164854;23;20476;-83
2022/06/01 08:32:57;;;;;;;8.00;3.75;;;18.20;99.90;;;;;;6215973;23;20178;-84
2022/06/01 08:35:35;;;;;;;5.18;3.67;;;18.30;99.90;;;;;;6189592;23;20164;-84
2022/06/01 08:38:01;;;;;;;5.60;4.18;;;18.40;99.90;;;;;;6189308;23;20263;-83
2022/06/01 08:40:39;;;;;;;7.95;4.13;;;18.70;99.90;;;;;;6215969;23;20602;-83
2022/06/01 08:43:12;;;;;;;5.72;3.88;;;18.70;99.90;;;;;;6189420;23;20174;-84
2022/06/01 08:45:42;;;;;;;4.93;3.80;;;18.70;99.90;;;;;;6215472;23;20603;-84
2022/06/01 08:48:12;;;;;;;7.65;4.45;;;18.60;99.90;;;;;;6215891;23;20206;-84
2022/06/01 08:50:38;;;;;;;7.30;4.18;;;18.70;99.90;;;;;;6215428;23;20152;-83
2022/06/01 08:53:07;;;;;;;3.58;3.17;;;18.60;99.90;;;;;;6215584;23;20164;-83
2022/06/01 08:55:53;;;;;;;8.52;3.55;;;18.60;99.90;;;;;;6215414;23;20511;-84
2022/06/01 08:58:57;;;;;;;7.40;4.15;;;18.60;99.90;;;;;;6215506;23;20168;-83
2022/06/01 09:01:45;;;;;;;4.82;3.53;;;18.80;99.90;;;;;;6176194;23;20246;-83
2022/06/01 09:04:26;;;;;;;5.70;4.40;;;19.00;99.90;;;;;;6189300;23;20152;-83
2022/06/01 09:07:15;;;;;;;5.43;4.00;;;19.10;99.90;;;;;;6215691;23;20195;-84
2022/06/01 09:09:53;;;;;;;5.68;4.35;;;19.10;99.90;;;;;;6214832;23;20214;-84
2022/06/01 09:12:18;;;;;;;5.32;3.70;;;19.10;99.90;;;;;;6189023;23;20156;-85
2022/06/01 09:14:49;;;;;;;6.18;3.38;;;19.10;99.90;;;;;;6188830;23;20155;-84
2022/06/01 09:17:15;;;;;;;3.85;3.00;;;19.20;99.90;;;;;;6215886;23;20180;-84
2022/06/01 09:22:37;;;;;;;4.03;2.92;;;19.40;99.90;;;;;;6174264;23;20174;-84
2022/06/01 09:25:06;;;;;;;3.25;2.65;;;19.50;99.90;;;;;;6217461;23;20579;-86
2022/06/01 09:27:47;;;;;;;3.05;2.30;;;19.60;99.90;;;;;;6216950;23;20167;-85
2022/06/01 09:30:33;;;;;;;4.50;3.60;;;19.80;99.90;;;;;;6217397;23;20140;-84
2022/06/01 09:33:04;;;;;;;4.55;2.90;;;20.00;99.90;;;;;;6217355;23;20584;-83
2022/06/01 09:35:34;;;;;;;4.90;2.78;;;20.00;99.90;;;;;;6217202;23;20140;-85
2022/06/01 09:38:04;;;;;;;6.07;4.05;;;20.10;99.90;;;;;;6190588;23;20180;-83
2022/06/01 09:40:35;;;;;;;5.32;3.08;;;20.20;99.90;;;;;;6217639;23;20159;-91
2022/06/01 09:43:01;;;;;;;4.95;2.83;;;20.30;99.90;;;;;;6217636;23;20216;-83
2022/06/01 09:45:33;;;;;;;3.58;2.83;;;20.50;99.90;;;;;;6191062;23;20163;-84
2022/06/01 09:48:21;;;;;;;3.70;2.75;;;20.50;99.90;;;;;;6191237;23;20493;-84
2022/06/01 09:50:59;;;;;;;3.47;2.45;;;20.60;99.90;;;;;;6217480;23;20175;-83
2022/06/01 09:53:33;;;;;;;3.95;2.70;;;20.60;99.90;;;;;;6217388;23;20534;-83
2022/06/01 09:56:02;;;;;;;4.63;2.03;;;20.70;99.90;;;;;;6217098;23;20146;-83
2022/06/01 10:07:30;;;;;;;2.67;1.77;;;20.70;99.90;;;;;;6217141;23;20210;-84
2022/06/01 10:10:01;;;;;;;2.05;1.77;;;20.50;99.90;;;;;;6217190;23;20155;-84
2022/06/01 10:12:51;;;;;;;2.70;2.10;;;20.40;99.90;;;;;;6217388;23;20140;-84
2022/06/01 10:15:39;;;;;;;1.70;1.60;;;20.40;99.90;;;;;;6217666;23;20643;-84
2022/06/01 10:18:17;;;;;;;2.50;2.17;;;20.40;99.90;;;;;;6190626;23;20665;-83
2022/06/01 10:20:55;;;;;;;4.63;2.30;;;20.40;99.90;;;;;;6216665;23;20166;-89
2022/06/01 10:23:49;;;;;;;2.78;2.28;;;20.40;99.90;;;;;;6189741;23;20151;-85
2022/06/01 10:26:35;;;;;;;2.20;2.00;;;20.50;99.90;;;;;;6216682;23;20227;-84
2022/06/01 10:29:15;;;;;;;3.40;1.92;;;20.70;99.90;;;;;;6217009;23;20163;-83
2022/06/01 10:31:52;;;;;;;1.95;1.63;;;20.80;99.90;;;;;;6217012;23;20605;-84
2022/06/01 10:34:45;;;;;;;1.90;1.50;;;20.70;99.90;;;;;;6217260;23;20136;-84
2022/06/01 10:37:32;;;;;;;1.77;1.58;;;20.80;99.90;;;;;;6190611;23;20615;-84
2022/06/01 10:40:20;;;;;;;2.22;1.60;;;20.90;99.90;;;;;;6190488;23;20163;-84
2022/06/01 10:46:00;;;;;;;1.50;1.40;;;20.80;99.90;;;;;;6216506;23;20599;-84
2022/06/01 10:48:30;;;;;;;2.85;1.30;;;21.10;99.90;;;;;;6217870;23;20172;-83
2022/06/01 10:51:09;;;;;;;2.00;1.33;;;21.30;99.90;;;;;;6190403;23;20156;-84
2022/06/01 10:53:59;;;;;;;1.63;1.40;;;21.40;99.90;;;;;;6217086;23;20219;-83
2022/06/01 10:56:26;;;;;;;2.47;1.58;;;21.30;99.90;;;;;;6190174;23;20159;-83
2022/06/01 10:58:56;;;;;;;2.35;1.60;;;21.20;99.90;;;;;;6190905;23;20167;-84
2022/06/01 11:01:38;;;;;;;1.73;1.50;;;21.20;99.90;;;;;;6217557;23;20602;-83
2022/06/01 11:04:45;;;;;;;1.25;1.10;;;21.10;99.90;;;;;;6217251;23;20179;-84
2022/06/01 11:07:23;;;;;;;1.83;1.40;;;21.00;99.90;;;;;;6160276;23;20637;-84
2022/06/01 11:10:14;;;;;;;2.13;1.40;;;21.00;99.90;;;;;;6216686;23;20167;-84
2022/06/01 11:12:56;;;;;;;1.67;1.25;;;21.30;99.90;;;;;;6223801;23;20155;-83
2022/06/01 11:15:34;;;;;;;1.60;1.33;;;21.50;99.90;;;;;;6222901;23;20215;-83
2022/06/01 11:18:10;;;;;;;1.80;1.65;;;21.30;99.90;;;;;;6222370;23;20174;-84
2022/06/01 11:20:51;;;;;;;1.52;1.23;;;21.40;99.90;;;;;;6224893;23;20151;-84
2022/06/01 11:23:20;;;;;;;2.35;1.50;;;21.60;99.40;;;;;;6244370;23;20120;-84
2022/06/01 11:26:13;;;;;;;1.67;1.20;;;21.50;99.60;;;;;;6218049;23;20179;-92
2022/06/01 11:29:00;;;;;;;1.10;1.00;;;21.30;98.60;;;;;;6243945;23;20128;-84
2022/06/01 11:31:28;;;;;;;1.75;1.50;;;21.20;99.90;;;;;;6209312;23;20194;-83
2022/06/01 11:33:57;;;;;;;1.50;0.75;;;21.00;99.90;;;;;;6225953;23;20148;-83
2022/06/01 11:37:04;;;;;;;1.23;1.13;;;20.60;99.90;;;;;;6233425;23;20159;-84
2022/06/01 11:39:43;;;;;;;3.70;1.40;;;20.80;99.90;;;;;;6217105;23;20143;-83
2022/06/01 11:42:26;;;;;;;1.65;1.27;;;20.60;99.90;;;;;;6242617;23;20144;-82
2022/06/01 11:44:59;;;;;;;1.30;1.20;;;20.30;99.90;;;;;;6230872;23;20560;-83
2022/06/01 11:47:30;;;;;;;1.48;1.38;;;20.20;99.90;;;;;;6216814;23;20144;-84
2022/06/01 11:50:25;;;;;;;2.55;1.90;;;20.30;99.90;;;;;;6190523;23;20182;-85
2022/06/01 11:52:56;;;;;;;1.65;1.45;;;20.30;99.90;;;;;;6217724;23;20152;-85
2022/06/01 11:55:29;;;;;;;2.10;1.83;;;20.30;99.90;;;;;;6191059;23;20242;-85
2022/06/01 11:58:03;;;;;;;2.05;1.67;;;20.20;99.90;;;;;;6190003;23;20496;-83
2022/06/01 12:00:39;;;;;;;2.90;1.80;;;20.20;99.90;;;;;;6216159;23;20144;-84
2022/06/01 12:03:20;;;;;;;3.90;1.42;;;20.40;99.90;;;;;;6216096;23;20139;-82
2022/06/01 12:06:00;;;;;;;1.65;1.55;;;20.40;99.90;;;;;;6216315;23;20194;-83
2022/06/01 12:08:32;;;;;;;1.38;1.13;;;20.30;99.90;;;;;;6216118;23;20249;-83
2022/06/01 12:11:04;;;;;;;2.05;1.33;;;20.10;99.90;;;;;;6189234;23;20231;-83
2022/06/01 12:13:36;;;;;;;1.75;1.65;;;20.20;99.90;;;;;;6216110;23;20158;-84
2022/06/01 12:16:04;;;;;;;1.35;1.15;;;20.00;99.90;;;;;;6188876;23;20160;-85
2022/06/01 12:18:31;;;;;;;1.30;1.20;;;19.80;99.90;;;;;;6215728;23;20317;-83
2022/06/01 12:21:17;;;;;;;1.20;1.10;;;19.80;99.90;;;;;;6189099;23;20168;-83
2022/06/01 12:30:00;;;;;;;2.83;1.48;;;19.50;99.90;;;;;;6168330;23;20191;-84
2022/06/01 12:32:27;;;;;;;2.00;1.20;;;19.60;99.90;;;;;;6188769;23;20583;-83
2022/06/01 12:34:59;;;;;;;0.80;0.80;;;19.70;99.90;;;;;;6187794;23;20167;-86
2022/06/01 12:37:57;;;;;;;1.83;1.15;;;19.70;99.90;;;;;;6213985;23;20529;-84
2022/06/01 12:40:24;;;;;;;1.13;1.02;;;19.50;99.90;;;;;;6170472;23;20183;-86
2022/06/01 12:43:00;;;;;;;2.45;0.95;;;19.20;99.90;;;;;;6187774;23;20610;-83
2022/06/01 12:45:35;;;;;;;2.40;1.02;;;19.10;99.90;;;;;;6187585;23;20155;-84
2022/06/01 12:48:04;;;;;;;0.85;0.80;;;19.10;99.90;;;;;;6214528;23;20175;-84
2022/06/01 12:50:45;;;;;;;1.10;1.00;;;19.20;99.90;;;;;;6188779;23;20158;-83
2022/06/01 12:53:13;;;;;;;1.35;1.25;;;19.30;99.90;;;;;;6216279;23;20132;-83
2022/06/01 12:55:39;;;;;;;1.63;1.40;;;19.30;99.90;;;;;;6191032;23;20185;-83
2022/06/01 12:58:20;;;;;;;1.25;1.15;;;19.60;99.90;;;;;;6190968;23;20263;-83
2022/06/01 13:00:54;;;;;;;1.88;1.10;;;20.00;99.90;;;;;;6218495;23;20163;-83
2022/06/01 13:03:23;;;;;;;1.33;1.23;;;20.30;99.90;;;;;;6218407;23;20140;-83
2022/06/01 13:05:52;;;;;;;0.85;0.85;;;20.60;99.90;;;;;;6217391;23;20239;-84
2022/06/01 13:08:25;;;;;;;3.75;1.20;;;20.80;99.90;;;;;;6217772;23;20199;-84
2022/06/01 13:10:52;;;;;;;1.35;1.25;;;21.00;99.90;;;;;;6217793;23;20198;-85
2022/06/01 13:13:23;;;;;;;1.50;1.20;;;21.00;99.90;;;;;;6190881;23;20166;-84
2022/06/01 13:16:04;;;;;;;1.30;1.20;;;21.00;99.90;;;;;;6217809;23;20190;-84
2022/06/01 13:18:38;;;;;;;1.20;1.10;;;21.20;99.90;;;;;;6190819;23;20506;-84
2022/06/01 13:21:08;;;;;;;1.08;1.02;;;21.40;99.90;;;;;;6191771;23;20331;-84
2022/06/01 13:23:41;;;;;;;1.52;1.30;;;21.60;99.90;;;;;;6190678;23;20159;-84
2022/06/01 13:26:10;;;;;;;1.50;1.30;;;21.70;99.90;;;;;;6190468;23;20167;-82
2022/06/01 13:28:35;;;;;;;3.35;1.52;;;21.70;99.90;;;;;;6217071;23;20175;-85
2022/06/01 13:31:02;;;;;;;1.85;1.48;;;21.60;99.90;;;;;;6216847;23;20180;-84
2022/06/01 13:33:36;;;;;;;1.50;1.40;;;21.80;99.90;;;;;;6216847;23;20206;-83
2022/06/01 13:36:07;;;;;;;1.55;1.42;;;21.90;99.90;;;;;;6216982;23;20224;-83
2022/06/01 13:39:00;;;;;;;1.70;1.40;;;22.00;99.90;;;;;;6216095;23;20167;-84
2022/06/01 13:41:54;;;;;;;1.20;1.10;;;22.20;99.90;;;;;;6216716;23;20229;-83
2022/06/01 13:44:43;;;;;;;1.50;1.30;;;22.00;99.70;;;;;;6211994;23;20246;-82
2022/06/01 13:47:09;;;;;;;1.65;1.40;;;21.90;99.90;;;;;;6217119;23;20156;-82
2022/06/01 13:49:41;;;;;;;1.35;1.10;;;21.90;99.90;;;;;;6191078;23;20180;-82
2022/06/01 13:52:08;;;;;;;0.88;0.88;;;21.90;99.60;;;;;;6216649;23;20140;-88
2022/06/01 13:54:36;;;;;;;1.45;1.27;;;21.90;99.90;;;;;;6216728;23;20153;-83
2022/06/01 13:57:24;;;;;;;1.85;1.55;;;21.80;99.90;;;;;;6190313;23;20191;-83